sensor_id;sensor_type;location;lat;lon;timestamp;pressure;altitude;pressure_sealevel;temperature;humidity
75188;BME280;63762;51.334;22.108;2023-07-16T00:03:05;101629.20;;;22.45;59.27
75188;BME280;63762;51.334;22.108;2023-07-16T00:13:12;101621.70;;;22.39;59.66
75188;BME280;63762;51.334;22.108;2023-07-16T00:23:20;101618.69;;;22.10;61.72
75188;BME280;63762;51.334;22.108;2023-07-16T00:33:26;101608.08;;;22.07;61.49
75188;BME280;63762;51.334;22.108;2023-07-16T00:43:33;101612.90;;;21.97;61.94
75188;BME280;63762;51.334;22.108;2023-07-16T00:53:41;101604.85;;;21.95;62.10
75188;BME280;63762;51.334;22.108;2023-07-16T01:03:48;101609.65;;;21.77;63.00
75188;BME280;63762;51.334;22.108;2023-07-16T01:13:55;101611.68;;;21.67;63.69
75188;BME280;63762;51.334;22.108;2023-07-16T01:34:15;101592.16;;;21.46;64.41
75188;BME280;63762;51.334;22.108;2023-07-16T01:44:16;101591.67;;;21.42;64.63
75188;BME280;63762;51.334;22.108;2023-07-16T01:54:23;101583.43;;;21.34;64.90
75188;BME280;63762;51.334;22.108;2023-07-16T02:04:30;101586.18;;;21.26;65.35
75188;BME280;63762;51.334;22.108;2023-07-16T02:14:37;101572.63;;;21.17;65.80
75188;BME280;63762;51.334;22.108;2023-07-16T02:24:45;101576.05;;;21.03;66.42
75188;BME280;63762;51.334;22.108;2023-07-16T02:34:52;101579.63;;;20.95;66.73
75188;BME280;63762;51.334;22.108;2023-07-16T02:44:59;101564.17;;;20.78;67.44
75188;BME280;63762;51.334;22.108;2023-07-16T02:55:06;101573.86;;;20.57;68.65
75188;BME280;63762;51.334;22.108;2023-07-16T03:05:13;101563.25;;;20.54;68.52
75188;BME280;63762;51.334;22.108;2023-07-16T03:15:20;101545.10;;;20.45;69.29
75188;BME280;63762;51.334;22.108;2023-07-16T03:25:28;101551.44;;;20.45;69.50
75188;BME280;63762;51.334;22.108;2023-07-16T03:35:34;101555.87;;;20.46;69.69
75188;BME280;63762;51.334;22.108;2023-07-16T03:45:42;101561.67;;;20.43;69.93
75188;BME280;63762;51.334;22.108;2023-07-16T03:55:49;101578.79;;;20.53;69.79
75188;BME280;63762;51.334;22.108;2023-07-16T04:06:05;101571.63;;;20.60;70.03
75188;BME280;63762;51.334;22.108;2023-07-16T04:16:09;101576.31;;;20.76;69.71
75188;BME280;63762;51.334;22.108;2023-07-16T04:26:10;101574.52;;;21.00;69.54
75188;BME280;63762;51.334;22.108;2023-07-16T04:36:17;101581.05;;;21.23;69.18
75188;BME280;63762;51.334;22.108;2023-07-16T04:46:24;101587.55;;;21.46;69.05
75188;BME280;63762;51.334;22.108;2023-07-16T04:56:31;101580.73;;;21.74;68.67
75188;BME280;63762;51.334;22.108;2023-07-16T05:06:38;101596.77;;;22.02;68.34
75188;BME280;63762;51.334;22.108;2023-07-16T05:16:46;101599.77;;;22.31;68.00
75188;BME280;63762;51.334;22.108;2023-07-16T05:26:53;101599.31;;;22.66;67.00
75188;BME280;63762;51.334;22.108;2023-07-16T05:37:00;101604.39;;;23.07;66.15
75188;BME280;63762;51.334;22.108;2023-07-16T05:47:07;101606.04;;;23.47;64.86
75188;BME280;63762;51.334;22.108;2023-07-16T05:57:15;101612.58;;;23.83;63.49
75188;BME280;63762;51.334;22.108;2023-07-16T06:07:21;101617.41;;;24.18;62.38
75188;BME280;63762;51.334;22.108;2023-07-16T06:17:28;101606.52;;;24.54;60.75
75188;BME280;63762;51.334;22.108;2023-07-16T06:27:36;101616.27;;;24.85;59.99
75188;BME280;63762;51.334;22.108;2023-07-16T06:37:43;101614.65;;;25.26;58.89
75188;BME280;63762;51.334;22.108;2023-07-16T06:47:50;101607.71;;;25.72;57.83
75188;BME280;63762;51.334;22.108;2023-07-16T06:57:57;101608.30;;;26.17;56.65
75188;BME280;63762;51.334;22.108;2023-07-16T07:08:04;101604.19;;;26.68;55.64
75188;BME280;63762;51.334;22.108;2023-07-16T07:18:11;101603.95;;;27.23;54.53
75188;BME280;63762;51.334;22.108;2023-07-16T07:28:19;101597.67;;;27.74;53.70
75188;BME280;63762;51.334;22.108;2023-07-16T07:38:25;101602.77;;;28.23;52.06
75188;BME280;63762;51.334;22.108;2023-07-16T07:48:32;101605.20;;;28.77;51.55
75188;BME280;63762;51.334;22.108;2023-07-16T07:58:39;101607.40;;;29.12;49.07
75188;BME280;63762;51.334;22.108;2023-07-16T08:08:47;101618.61;;;29.30;48.18
75188;BME280;63762;51.334;22.108;2023-07-16T08:18:54;101619.05;;;29.65;46.58
75188;BME280;63762;51.334;22.108;2023-07-16T08:29:01;101633.72;;;29.96;47.16
75188;BME280;63762;51.334;22.108;2023-07-16T08:39:08;101626.00;;;30.48;46.68
75188;BME280;63762;51.334;22.108;2023-07-16T08:49:17;101619.23;;;30.80;46.03
75188;BME280;63762;51.334;22.108;2023-07-16T08:59:22;101612.87;;;31.09;44.84
75188;BME280;63762;51.334;22.108;2023-07-16T09:09:29;101619.18;;;31.16;44.30
75188;BME280;63762;51.334;22.108;2023-07-16T09:19:36;101607.48;;;31.43;42.80
75188;BME280;63762;51.334;22.108;2023-07-16T09:29:44;101617.48;;;31.74;43.18
75188;BME280;63762;51.334;22.108;2023-07-16T09:39:51;101623.87;;;32.27;42.60
75188;BME280;63762;51.334;22.108;2023-07-16T09:49:58;101619.44;;;32.38;40.92
75188;BME280;63762;51.334;22.108;2023-07-16T10:00:12;101609.57;;;32.58;40.31
75188;BME280;63762;51.334;22.108;2023-07-16T10:10:14;101604.09;;;32.75;39.75
75188;BME280;63762;51.334;22.108;2023-07-16T10:20:28;101599.73;;;33.18;39.08
75188;BME280;63762;51.334;22.108;2023-07-16T10:30:30;101581.49;;;33.27;39.06
75188;BME280;63762;51.334;22.108;2023-07-16T10:50:45;101573.98;;;33.72;35.25
75188;BME280;63762;51.334;22.108;2023-07-16T11:00:48;101573.37;;;33.70;36.36
75188;BME280;63762;51.334;22.108;2023-07-16T11:10:56;101568.91;;;34.02;35.62
75188;BME280;63762;51.334;22.108;2023-07-16T11:21:03;101578.86;;;34.32;36.69
75188;BME280;63762;51.334;22.108;2023-07-16T11:31:16;101573.87;;;34.72;35.73
75188;BME280;63762;51.334;22.108;2023-07-16T11:41:20;101545.31;;;34.91;36.13
75188;BME280;63762;51.334;22.108;2023-07-16T11:51:23;101554.19;;;35.10;36.03
75188;BME280;63762;51.334;22.108;2023-07-16T12:01:30;101549.23;;;34.90;35.78
75188;BME280;63762;51.334;22.108;2023-07-16T12:11:38;101542.02;;;35.21;33.95
75188;BME280;63762;51.334;22.108;2023-07-16T12:21:44;101543.59;;;35.12;33.43
75188;BME280;63762;51.334;22.108;2023-07-16T12:31:52;101532.56;;;35.27;34.06
75188;BME280;63762;51.334;22.108;2023-07-16T12:41:59;101535.84;;;35.45;31.19
75188;BME280;63762;51.334;22.108;2023-07-16T12:52:06;101533.02;;;35.19;32.73
75188;BME280;63762;51.334;22.108;2023-07-16T13:02:13;101518.09;;;35.35;33.92
75188;BME280;63762;51.334;22.108;2023-07-16T13:12:20;101515.92;;;35.42;33.64
75188;BME280;63762;51.334;22.108;2023-07-16T13:22:27;101519.88;;;35.77;33.32
75188;BME280;63762;51.334;22.108;2023-07-16T13:32:34;101519.17;;;35.92;32.61
75188;BME280;63762;51.334;22.108;2023-07-16T13:42:41;101508.66;;;35.77;31.97
75188;BME280;63762;51.334;22.108;2023-07-16T13:52:48;101508.98;;;35.81;32.60
75188;BME280;63762;51.334;22.108;2023-07-16T14:02:55;101489.59;;;35.74;31.94
75188;BME280;63762;51.334;22.108;2023-07-16T14:16:13;101493.61;;;35.52;32.26
75188;BME280;63762;51.334;22.108;2023-07-16T14:26:20;101486.24;;;35.41;33.14
75188;BME280;63762;51.334;22.108;2023-07-16T14:36:27;101477.52;;;35.37;33.48
75188;BME280;63762;51.334;22.108;2023-07-16T14:46:34;101467.24;;;35.16;32.17
75188;BME280;63762;51.334;22.108;2023-07-16T14:56:41;101461.13;;;35.24;33.25
75188;BME280;63762;51.334;22.108;2023-07-16T15:06:48;101466.03;;;35.07;32.73
75188;BME280;63762;51.334;22.108;2023-07-16T15:16:56;101455.16;;;35.11;32.87
75188;BME280;63762;51.334;22.108;2023-07-16T15:27:03;101443.97;;;35.11;31.71
75188;BME280;63762;51.334;22.108;2023-07-16T15:37:09;101452.73;;;34.93;31.93
75188;BME280;63762;51.334;22.108;2023-07-16T15:47:16;101456.68;;;34.97;32.03
75188;BME280;63762;51.334;22.108;2023-07-16T15:57:23;101443.12;;;35.10;31.59
75188;BME280;63762;51.334;22.108;2023-07-16T16:07:31;101459.64;;;35.12;32.01
75188;BME280;63762;51.334;22.108;2023-07-16T16:17:38;101454.66;;;35.19;32.49
75188;BME280;63762;51.334;22.108;2023-07-16T16:27:45;101454.59;;;35.40;32.50
75188;BME280;63762;51.334;22.108;2023-07-16T16:37:52;101453.92;;;35.60;33.51
75188;BME280;63762;51.334;22.108;2023-07-16T16:48:03;101448.20;;;35.81;34.60
75188;BME280;63762;51.334;22.108;2023-07-16T16:58:06;101441.17;;;35.79;35.12
75188;BME280;63762;51.334;22.108;2023-07-16T17:08:13;101456.04;;;35.43;35.80
75188;BME280;63762;51.334;22.108;2023-07-16T17:18:21;101477.93;;;34.71;37.37
75188;BME280;63762;51.334;22.108;2023-07-16T17:28:27;101472.41;;;33.95;38.31
75188;BME280;63762;51.334;22.108;2023-07-16T17:38:35;101469.71;;;33.34;38.67
75188;BME280;63762;51.334;22.108;2023-07-16T17:48:42;101486.74;;;32.76;41.27
75188;BME280;63762;51.334;22.108;2023-07-16T17:58:49;101488.19;;;32.51;42.93
75188;BME280;63762;51.334;22.108;2023-07-16T18:08:56;101495.84;;;32.21;43.97
75188;BME280;63762;51.334;22.108;2023-07-16T18:19:04;101493.10;;;31.86;45.44
75188;BME280;63762;51.334;22.108;2023-07-16T18:29:10;101519.43;;;31.37;42.83
75188;BME280;63762;51.334;22.108;2023-07-16T18:39:17;101527.60;;;30.55;42.10
75188;BME280;63762;51.334;22.108;2023-07-16T18:49:24;101536.89;;;30.31;43.27
75188;BME280;63762;51.334;22.108;2023-07-16T18:59:31;101556.67;;;30.17;44.86
75188;BME280;63762;51.334;22.108;2023-07-16T19:09:39;101582.06;;;29.95;45.41
75188;BME280;63762;51.334;22.108;2023-07-16T19:19:46;101599.17;;;29.68;46.36
75188;BME280;63762;51.334;22.108;2023-07-16T19:29:53;101600.35;;;29.47;48.59
75188;BME280;63762;51.334;22.108;2023-07-16T19:40:00;101607.16;;;29.20;48.96
75188;BME280;63762;51.334;22.108;2023-07-16T19:50:07;101615.59;;;28.94;49.41
75188;BME280;63762;51.334;22.108;2023-07-16T20:00:14;101630.57;;;28.74;49.97
75188;BME280;63762;51.334;22.108;2023-07-16T20:10:21;101643.43;;;28.55;50.40
75188;BME280;63762;51.334;22.108;2023-07-16T20:20:32;101648.09;;;28.35;51.13
75188;BME280;63762;51.334;22.108;2023-07-16T20:30:36;101645.35;;;28.09;50.94
75188;BME280;63762;51.334;22.108;2023-07-16T20:40:43;101651.55;;;27.85;51.79
75188;BME280;63762;51.334;22.108;2023-07-16T20:50:50;101664.05;;;27.68;51.92
75188;BME280;63762;51.334;22.108;2023-07-16T21:00:57;101665.91;;;27.48;52.66
75188;BME280;63762;51.334;22.108;2023-07-16T21:11:04;101673.95;;;27.36;53.54
75188;BME280;63762;51.334;22.108;2023-07-16T21:21:12;101685.63;;;27.25;54.29
75188;BME280;63762;51.334;22.108;2023-07-16T21:31:18;101687.45;;;27.12;55.32
75188;BME280;63762;51.334;22.108;2023-07-16T21:41:25;101692.50;;;26.95;55.84
75188;BME280;63762;51.334;22.108;2023-07-16T21:51:32;101709.60;;;26.78;56.68
75188;BME280;63762;51.334;22.108;2023-07-16T22:01:40;101707.80;;;26.64;57.08
75188;BME280;63762;51.334;22.108;2023-07-16T22:11:47;101710.00;;;26.47;57.69
75188;BME280;63762;51.334;22.108;2023-07-16T22:21:54;101709.04;;;26.34;57.99
75188;BME280;63762;51.334;22.108;2023-07-16T22:32:01;101715.41;;;26.07;57.61
75188;BME280;63762;51.334;22.108;2023-07-16T22:42:08;101717.26;;;25.64;58.71
75188;BME280;63762;51.334;22.108;2023-07-16T22:52:15;101724.57;;;25.36;60.46
75188;BME280;63762;51.334;22.108;2023-07-16T23:02:22;101723.44;;;25.16;61.73
75188;BME280;63762;51.334;22.108;2023-07-16T23:12:29;101721.84;;;25.07;62.08
75188;BME280;63762;51.334;22.108;2023-07-16T23:22:38;101720.20;;;25.12;62.60
75188;BME280;63762;51.334;22.108;2023-07-16T23:32:44;101722.02;;;25.05;62.19
75188;BME280;63762;51.334;22.108;2023-07-16T23:42:51;101730.22;;;24.84;61.91
75188;BME280;63762;51.334;22.108;2023-07-16T23:52:58;101743.18;;;24.61;63.16
